sensor_id;sensor_type;location;lat;lon;timestamp;pressure;altitude;pressure_sealevel;temperature;humidity
48089;BME280;33867;50.314;7.802;2023-08-08T12:58:59;100202.00;;;21.19;50.43
48089;BME280;33867;50.314;7.802;2023-08-08T13:02:32;100200.31;;;21.12;53.21
48089;BME280;33867;50.314;7.802;2023-08-08T13:44:53;100195.63;;;20.61;53.61
48089;BME280;33867;50.314;7.802;2023-08-08T13:48:19;100179.00;;;20.56;53.82
48089;BME280;33867;50.314;7.802;2023-08-08T14:37:21;100198.19;;;19.48;58.98
48089;BME280;33867;50.314;7.802;2023-08-08T15:26:23;100200.38;;;20.92;56.36
48089;BME280;33867;50.314;7.802;2023-08-08T15:38:37;100218.13;;;20.30;61.39
48089;BME280;33867;50.314;7.802;2023-08-08T15:42:09;100216.63;;;20.07;60.71
48089;BME280;33867;50.314;7.802;2023-08-08T15:45:36;100207.00;;;19.44;60.80
48089;BME280;33867;50.314;7.802;2023-08-08T15:48:55;100210.25;;;19.74;60.10
48089;BME280;33867;50.314;7.802;2023-08-08T15:52:23;100219.75;;;19.98;64.69
48089;BME280;33867;50.314;7.802;2023-08-08T16:13:46;100209.28;;;20.01;61.50
48089;BME280;33867;50.314;7.802;2023-08-08T16:22:46;100218.22;;;19.55;61.99
48089;BME280;33867;50.314;7.802;2023-08-08T16:27:00;100218.47;;;19.87;63.15
48089;BME280;33867;50.314;7.802;2023-08-08T16:35:05;100207.09;;;19.57;63.19
48089;BME280;33867;50.314;7.802;2023-08-08T16:38:45;100208.06;;;19.43;65.70
48089;BME280;33867;50.314;7.802;2023-08-08T16:42:59;100203.22;;;19.51;62.82
48089;BME280;33867;50.314;7.802;2023-08-08T16:47:01;100201.94;;;19.41;60.52
48089;BME280;33867;50.314;7.802;2023-08-08T16:50:52;100205.97;;;19.51;60.86
48089;BME280;33867;50.314;7.802;2023-08-08T16:59:26;100215.06;;;19.65;60.80
48089;BME280;33867;50.314;7.802;2023-08-08T17:14:48;100224.03;;;19.52;56.34
48089;BME280;33867;50.314;7.802;2023-08-08T17:18:07;100230.06;;;19.35;57.06
48089;BME280;33867;50.314;7.802;2023-08-08T17:25:10;100230.44;;;19.18;59.82
48089;BME280;33867;50.314;7.802;2023-08-08T17:28:29;100235.03;;;19.18;58.42
48089;BME280;33867;50.314;7.802;2023-08-08T17:31:48;100232.75;;;19.21;59.39
48089;BME280;33867;50.314;7.802;2023-08-08T17:35:07;100234.16;;;19.11;56.75
48089;BME280;33867;50.314;7.802;2023-08-08T17:38:26;100231.22;;;19.12;56.17
48089;BME280;33867;50.314;7.802;2023-08-08T17:41:46;100235.28;;;19.23;58.02
48089;BME280;33867;50.314;7.802;2023-08-08T17:45:06;100235.44;;;19.15;59.74
48089;BME280;33867;50.314;7.802;2023-08-08T17:48:25;100221.56;;;19.10;59.04
48089;BME280;33867;50.314;7.802;2023-08-08T17:51:44;100223.25;;;19.11;59.31
48089;BME280;33867;50.314;7.802;2023-08-08T17:55:07;100227.34;;;18.93;58.51
48089;BME280;33867;50.314;7.802;2023-08-08T17:58:26;100217.34;;;19.07;60.20
48089;BME280;33867;50.314;7.802;2023-08-08T18:01:45;100216.97;;;19.17;59.94
48089;BME280;33867;50.314;7.802;2023-08-08T18:05:05;100209.88;;;19.29;60.82
48089;BME280;33867;50.314;7.802;2023-08-08T18:08:26;100207.97;;;19.23;60.46
48089;BME280;33867;50.314;7.802;2023-08-08T18:11:45;100195.94;;;19.11;60.37
48089;BME280;33867;50.314;7.802;2023-08-08T18:15:05;100196.06;;;18.89;58.35
48089;BME280;33867;50.314;7.802;2023-08-08T18:18:25;100211.84;;;19.01;58.40
48089;BME280;33867;50.314;7.802;2023-08-08T18:21:45;100205.75;;;18.98;59.76
48089;BME280;33867;50.314;7.802;2023-08-08T18:25:05;100209.50;;;18.91;59.33
48089;BME280;33867;50.314;7.802;2023-08-08T18:28:25;100208.63;;;18.84;60.36
48089;BME280;33867;50.314;7.802;2023-08-08T18:35:38;100208.91;;;18.67;60.83
48089;BME280;33867;50.314;7.802;2023-08-08T18:38:57;100214.31;;;18.89;60.51
48089;BME280;33867;50.314;7.802;2023-08-08T18:47:15;100210.41;;;18.70;61.01
48089;BME280;33867;50.314;7.802;2023-08-08T18:55:13;100222.88;;;18.58;63.31
48089;BME280;33867;50.314;7.802;2023-08-08T18:58:35;100224.47;;;18.46;62.70
48089;BME280;33867;50.314;7.802;2023-08-08T19:01:54;100222.13;;;18.15;61.73
48089;BME280;33867;50.314;7.802;2023-08-08T19:05:13;100218.41;;;18.22;63.16
48089;BME280;33867;50.314;7.802;2023-08-08T19:09:06;100218.16;;;17.96;63.93
48089;BME280;33867;50.314;7.802;2023-08-08T19:13:17;100215.19;;;17.91;63.22
48089;BME280;33867;50.314;7.802;2023-08-08T19:16:37;100224.00;;;17.71;64.59
48089;BME280;33867;50.314;7.802;2023-08-08T19:28:33;100237.94;;;17.47;65.85
48089;BME280;33867;50.314;7.802;2023-08-08T19:36:55;100241.38;;;17.19;67.16
48089;BME280;33867;50.314;7.802;2023-08-08T19:40:23;100237.91;;;17.11;67.53
48089;BME280;33867;50.314;7.802;2023-08-08T19:43:42;100240.78;;;17.24;68.53
48089;BME280;33867;50.314;7.802;2023-08-08T19:47:01;100234.66;;;17.37;67.77
48089;BME280;33867;50.314;7.802;2023-08-08T19:58:09;100220.16;;;17.51;67.09
48089;BME280;33867;50.314;7.802;2023-08-08T20:13:46;100210.94;;;17.16;70.36
48089;BME280;33867;50.314;7.802;2023-08-08T20:17:05;100230.00;;;17.01;69.03
